KWRL/WRL METAR and TAF weather

Enter ICAO airport designator
Station Type Date Time Source
KWRL METAR 2024/05/28 23:53 UTC NOAA

KWRL 282353Z AUTO 21009G16KT 10SM CLR 27/M01 A2999 RMK AO2 SLP126 T02721011 10272 20217 56024


Station Type Date Time Source
KWRL Decoded METAR 2024/05/28 23:53 UTC NOAA

WORLAND MUNICIPAL AIRPORT, WY, United States (KWRL) 43-58N 107-57W 1271M
May 28, 2024 - 07:53 PM EDT / 2024.05.28 2353 UTC
Wind: from the SSW (210 degrees) at 10 MPH (9 KT) gusting to 18 MPH (16 KT):0
Visibility: 10 mile(s):0
Sky conditions: clear
Temperature: 81.0 F (27.2 C)
Dew Point: 30.0 F (-1.1 C)
Relative Humidity: 15%
Pressure (altimeter): 29.99 in. Hg (1015 hPa)
Pressure tendency: 0.07 inches (2.4 hPa) lower than three hours ago
ob: KWRL 282353Z AUTO 21009G16KT 10SM CLR 27/M01 A2999 RMK AO2 SLP126 T02721011 10272 20217 56024
cycle: 0

Station Type Date Time Source
KWRL TAF 2024/05/28 18:33 UTC NOAA